sensor_id;sensor_type;location;lat;lon;timestamp;temperature;humidity
52656;SHT85;35474;51.032;6.998;2024-03-25T00:01:07;6.52;82.03
52656;SHT85;35474;51.032;6.998;2024-03-25T00:03:32;6.48;82.24
52656;SHT85;35474;51.032;6.998;2024-03-25T00:05:59;6.37;82.52
52656;SHT85;35474;51.032;6.998;2024-03-25T00:08:24;6.33;82.69
52656;SHT85;35474;51.032;6.998;2024-03-25T00:10:50;6.24;82.99
52656;SHT85;35474;51.032;6.998;2024-03-25T00:13:16;6.17;83.36
52656;SHT85;35474;51.032;6.998;2024-03-25T00:15:41;6.25;83.17
52656;SHT85;35474;51.032;6.998;2024-03-25T00:18:09;6.31;83.11
52656;SHT85;35474;51.032;6.998;2024-03-25T00:20:36;6.27;82.98
52656;SHT85;35474;51.032;6.998;2024-03-25T00:23:02;6.25;82.89
52656;SHT85;35474;51.032;6.998;2024-03-25T00:25:28;6.25;82.93
52656;SHT85;35474;51.032;6.998;2024-03-25T00:27:54;6.23;83.13
52656;SHT85;35474;51.032;6.998;2024-03-25T00:30:19;6.25;83.38
52656;SHT85;35474;51.032;6.998;2024-03-25T00:32:48;6.23;83.54
52656;SHT85;35474;51.032;6.998;2024-03-25T00:35:13;6.23;83.61
52656;SHT85;35474;51.032;6.998;2024-03-25T00:37:39;6.21;83.95
52656;SHT85;35474;51.032;6.998;2024-03-25T00:40:05;6.14;84.34
52656;SHT85;35474;51.032;6.998;2024-03-25T00:42:32;6.14;84.28
52656;SHT85;35474;51.032;6.998;2024-03-25T00:44:58;6.14;84.66
52656;SHT85;35474;51.032;6.998;2024-03-25T00:47:25;6.09;85.03
52656;SHT85;35474;51.032;6.998;2024-03-25T00:49:51;6.09;85.20
52656;SHT85;35474;51.032;6.998;2024-03-25T00:52:17;6.14;85.24
52656;SHT85;35474;51.032;6.998;2024-03-25T00:54:43;6.07;85.41
52656;SHT85;35474;51.032;6.998;2024-03-25T01:00:35;6.06;85.65
52656;SHT85;35474;51.032;6.998;2024-03-25T01:03:00;6.07;85.67
52656;SHT85;35474;51.032;6.998;2024-03-25T01:05:26;6.06;85.87
52656;SHT85;35474;51.032;6.998;2024-03-25T01:07:53;6.11;85.58
52656;SHT85;35474;51.032;6.998;2024-03-25T01:10:18;6.06;85.87
52656;SHT85;35474;51.032;6.998;2024-03-25T01:12:44;6.07;85.72
52656;SHT85;35474;51.032;6.998;2024-03-25T01:15:09;6.02;85.68
52656;SHT85;35474;51.032;6.998;2024-03-25T01:17:36;6.02;85.92
52656;SHT85;35474;51.032;6.998;2024-03-25T01:20:02;6.00;85.97
52656;SHT85;35474;51.032;6.998;2024-03-25T01:22:30;5.97;86.14
52656;SHT85;35474;51.032;6.998;2024-03-25T01:24:56;5.99;86.02
52656;SHT85;35474;51.032;6.998;2024-03-25T01:27:22;5.99;85.89
52656;SHT85;35474;51.032;6.998;2024-03-25T01:29:48;6.00;85.70
52656;SHT85;35474;51.032;6.998;2024-03-25T01:32:13;6.02;85.66
52656;SHT85;35474;51.032;6.998;2024-03-25T01:34:39;6.03;85.75
52656;SHT85;35474;51.032;6.998;2024-03-25T01:37:05;5.96;85.78
52656;SHT85;35474;51.032;6.998;2024-03-25T01:39:31;6.00;85.78
52656;SHT85;35474;51.032;6.998;2024-03-25T01:41:57;6.06;85.72
52656;SHT85;35474;51.032;6.998;2024-03-25T01:44:22;6.02;85.63
52656;SHT85;35474;51.032;6.998;2024-03-25T01:46:48;6.00;85.65
52656;SHT85;35474;51.032;6.998;2024-03-25T01:49:14;6.02;85.29
52656;SHT85;35474;51.032;6.998;2024-03-25T01:51:41;5.97;85.35
52656;SHT85;35474;51.032;6.998;2024-03-25T01:54:07;5.90;85.22
52656;SHT85;35474;51.032;6.998;2024-03-25T01:56:33;5.95;85.24
52656;SHT85;35474;51.032;6.998;2024-03-25T01:59:09;5.92;85.33
52656;SHT85;35474;51.032;6.998;2024-03-25T02:01:41;5.92;85.22
52656;SHT85;35474;51.032;6.998;2024-03-25T02:04:06;5.93;85.14
52656;SHT85;35474;51.032;6.998;2024-03-25T02:06:32;5.92;85.08
52656;SHT85;35474;51.032;6.998;2024-03-25T02:08:58;5.86;85.35
52656;SHT85;35474;51.032;6.998;2024-03-25T02:11:24;5.79;85.65
52656;SHT85;35474;51.032;6.998;2024-03-25T02:13:51;5.70;86.17
52656;SHT85;35474;51.032;6.998;2024-03-25T02:16:17;5.73;86.16
52656;SHT85;35474;51.032;6.998;2024-03-25T02:18:42;5.79;86.06
52656;SHT85;35474;51.032;6.998;2024-03-25T02:21:08;5.79;85.95
52656;SHT85;35474;51.032;6.998;2024-03-25T02:23:34;5.79;85.85
52656;SHT85;35474;51.032;6.998;2024-03-25T02:26:00;5.77;85.74
52656;SHT85;35474;51.032;6.998;2024-03-25T02:28:25;5.82;85.46
52656;SHT85;35474;51.032;6.998;2024-03-25T02:30:51;5.83;85.43
52656;SHT85;35474;51.032;6.998;2024-03-25T02:33:16;5.72;85.33
52656;SHT85;35474;51.032;6.998;2024-03-25T02:35:42;5.73;85.57
52656;SHT85;35474;51.032;6.998;2024-03-25T02:38:09;5.73;85.32
52656;SHT85;35474;51.032;6.998;2024-03-25T02:40:36;5.80;85.05
52656;SHT85;35474;51.032;6.998;2024-03-25T02:43:02;5.80;85.18
52656;SHT85;35474;51.032;6.998;2024-03-25T02:45:28;5.80;85.07
52656;SHT85;35474;51.032;6.998;2024-03-25T02:47:54;5.83;85.05
52656;SHT85;35474;51.032;6.998;2024-03-25T02:50:20;5.83;85.04
52656;SHT85;35474;51.032;6.998;2024-03-25T02:52:45;5.75;84.98
52656;SHT85;35474;51.032;6.998;2024-03-25T02:55:11;5.79;85.14
52656;SHT85;35474;51.032;6.998;2024-03-25T02:57:36;5.82;84.86
52656;SHT85;35474;51.032;6.998;2024-03-25T03:00:02;5.79;84.99
52656;SHT85;35474;51.032;6.998;2024-03-25T03:02:28;5.82;85.00
52656;SHT85;35474;51.032;6.998;2024-03-25T03:04:54;5.85;84.75
52656;SHT85;35474;51.032;6.998;2024-03-25T03:07:20;5.80;84.86
52656;SHT85;35474;51.032;6.998;2024-03-25T03:09:45;5.82;84.95
52656;SHT85;35474;51.032;6.998;2024-03-25T03:12:11;5.76;85.17
52656;SHT85;35474;51.032;6.998;2024-03-25T03:14:37;5.79;85.20
52656;SHT85;35474;51.032;6.998;2024-03-25T03:17:03;5.80;85.11
52656;SHT85;35474;51.032;6.998;2024-03-25T03:19:30;5.75;85.12
52656;SHT85;35474;51.032;6.998;2024-03-25T03:21:56;5.76;85.25
52656;SHT85;35474;51.032;6.998;2024-03-25T03:24:22;5.76;85.39
52656;SHT85;35474;51.032;6.998;2024-03-25T03:26:48;5.72;85.29
52656;SHT85;35474;51.032;6.998;2024-03-25T03:29:14;5.69;85.34
52656;SHT85;35474;51.032;6.998;2024-03-25T03:31:39;5.70;85.44
52656;SHT85;35474;51.032;6.998;2024-03-25T03:34:05;5.72;85.28
52656;SHT85;35474;51.032;6.998;2024-03-25T03:36:30;5.69;85.07
52656;SHT85;35474;51.032;6.998;2024-03-25T03:38:56;5.69;85.19
52656;SHT85;35474;51.032;6.998;2024-03-25T03:41:22;5.66;85.43
52656;SHT85;35474;51.032;6.998;2024-03-25T03:43:50;5.62;85.66
52656;SHT85;35474;51.032;6.998;2024-03-25T03:46:15;5.62;85.65
52656;SHT85;35474;51.032;6.998;2024-03-25T03:48:41;5.59;85.78
52656;SHT85;35474;51.032;6.998;2024-03-25T03:51:06;5.56;85.92
52656;SHT85;35474;51.032;6.998;2024-03-25T03:53:33;5.59;85.74
52656;SHT85;35474;51.032;6.998;2024-03-25T03:56:00;5.51;85.87
52656;SHT85;35474;51.032;6.998;2024-03-25T03:58:27;5.45;86.27
52656;SHT85;35474;51.032;6.998;2024-03-25T04:00:53;5.39;86.30
52656;SHT85;35474;51.032;6.998;2024-03-25T04:03:18;5.37;86.32
52656;SHT85;35474;51.032;6.998;2024-03-25T04:05:44;5.32;86.57
52656;SHT85;35474;51.032;6.998;2024-03-25T04:08:10;5.32;86.62
52656;SHT85;35474;51.032;6.998;2024-03-25T04:10:36;5.34;86.76
52656;SHT85;35474;51.032;6.998;2024-03-25T04:13:06;5.41;86.33
52656;SHT85;35474;51.032;6.998;2024-03-25T04:15:36;5.44;86.23
52656;SHT85;35474;51.032;6.998;2024-03-25T04:18:03;5.42;86.09
52656;SHT85;35474;51.032;6.998;2024-03-25T04:20:29;5.30;86.37
52656;SHT85;35474;51.032;6.998;2024-03-25T04:23:01;5.27;86.60
52656;SHT85;35474;51.032;6.998;2024-03-25T04:25:26;5.34;86.84
52656;SHT85;35474;51.032;6.998;2024-03-25T04:27:52;5.21;86.74
52656;SHT85;35474;51.032;6.998;2024-03-25T04:30:17;5.14;87.06
52656;SHT85;35474;51.032;6.998;2024-03-25T04:32:43;5.06;87.21
52656;SHT85;35474;51.032;6.998;2024-03-25T04:35:08;4.94;87.40
52656;SHT85;35474;51.032;6.998;2024-03-25T04:37:34;4.96;87.68
52656;SHT85;35474;51.032;6.998;2024-03-25T04:40:00;4.86;87.83
52656;SHT85;35474;51.032;6.998;2024-03-25T04:42:26;4.80;88.05
52656;SHT85;35474;51.032;6.998;2024-03-25T04:44:52;4.75;88.29
52656;SHT85;35474;51.032;6.998;2024-03-25T04:47:19;4.80;88.39
52656;SHT85;35474;51.032;6.998;2024-03-25T04:49:44;4.80;88.19
52656;SHT85;35474;51.032;6.998;2024-03-25T04:52:13;4.69;88.33
52656;SHT85;35474;51.032;6.998;2024-03-25T04:54:42;4.65;88.68
52656;SHT85;35474;51.032;6.998;2024-03-25T04:57:08;4.72;88.66
52656;SHT85;35474;51.032;6.998;2024-03-25T04:59:34;4.57;88.65
52656;SHT85;35474;51.032;6.998;2024-03-25T05:01:59;4.53;88.86
52656;SHT85;35474;51.032;6.998;2024-03-25T05:04:25;4.57;88.96
52656;SHT85;35474;51.032;6.998;2024-03-25T05:06:51;4.48;89.06
52656;SHT85;35474;51.032;6.998;2024-03-25T05:09:16;4.35;89.23
52656;SHT85;35474;51.032;6.998;2024-03-25T05:11:42;4.24;89.36
52656;SHT85;35474;51.032;6.998;2024-03-25T05:14:08;4.39;89.64
52656;SHT85;35474;51.032;6.998;2024-03-25T05:16:34;4.46;89.66
52656;SHT85;35474;51.032;6.998;2024-03-25T05:18:59;4.39;89.36
52656;SHT85;35474;51.032;6.998;2024-03-25T05:21:25;4.42;89.59
52656;SHT85;35474;51.032;6.998;2024-03-25T05:23:50;4.60;89.20
52656;SHT85;35474;51.032;6.998;2024-03-25T05:26:16;4.46;89.09
52656;SHT85;35474;51.032;6.998;2024-03-25T05:28:41;4.50;89.04
52656;SHT85;35474;51.032;6.998;2024-03-25T05:31:07;4.70;88.69
52656;SHT85;35474;51.032;6.998;2024-03-25T05:33:34;4.72;88.22
52656;SHT85;35474;51.032;6.998;2024-03-25T05:36:00;4.63;88.39
52656;SHT85;35474;51.032;6.998;2024-03-25T05:38:26;4.67;88.31
52656;SHT85;35474;51.032;6.998;2024-03-25T05:40:52;4.67;88.23
52656;SHT85;35474;51.032;6.998;2024-03-25T05:43:18;4.63;88.27
52656;SHT85;35474;51.032;6.998;2024-03-25T05:45:52;4.56;88.26
52656;SHT85;35474;51.032;6.998;2024-03-25T05:48:18;4.41;88.37
52656;SHT85;35474;51.032;6.998;2024-03-25T05:50:44;4.21;88.64
52656;SHT85;35474;51.032;6.998;2024-03-25T05:53:10;4.01;89.23
52656;SHT85;35474;51.032;6.998;2024-03-25T05:55:36;3.84;89.26
52656;SHT85;35474;51.032;6.998;2024-03-25T05:58:01;3.77;89.41
52656;SHT85;35474;51.032;6.998;2024-03-25T06:00:28;3.80;89.97
52656;SHT85;35474;51.032;6.998;2024-03-25T06:02:55;3.74;89.96
52656;SHT85;35474;51.032;6.998;2024-03-25T06:05:21;3.90;90.46
52656;SHT85;35474;51.032;6.998;2024-03-25T06:07:47;3.83;90.69
52656;SHT85;35474;51.032;6.998;2024-03-25T06:10:12;3.90;90.78
52656;SHT85;35474;51.032;6.998;2024-03-25T06:12:38;3.84;90.61
52656;SHT85;35474;51.032;6.998;2024-03-25T06:15:03;3.83;90.77
52656;SHT85;35474;51.032;6.998;2024-03-25T06:17:29;3.83;90.81
52656;SHT85;35474;51.032;6.998;2024-03-25T06:19:55;3.93;90.86
52656;SHT85;35474;51.032;6.998;2024-03-25T06:22:21;3.98;90.93
52656;SHT85;35474;51.032;6.998;2024-03-25T06:24:46;3.98;90.96
52656;SHT85;35474;51.032;6.998;2024-03-25T06:27:15;4.04;91.01
52656;SHT85;35474;51.032;6.998;2024-03-25T06:29:41;4.22;91.32
52656;SHT85;35474;51.032;6.998;2024-03-25T06:32:09;4.29;91.04
52656;SHT85;35474;51.032;6.998;2024-03-25T06:34:53;4.36;90.96
52656;SHT85;35474;51.032;6.998;2024-03-25T06:37:19;4.69;90.19
52656;SHT85;35474;51.032;6.998;2024-03-25T06:39:44;4.93;89.89
52656;SHT85;35474;51.032;6.998;2024-03-25T06:42:10;4.84;89.07
52656;SHT85;35474;51.032;6.998;2024-03-25T06:44:35;4.90;88.67
52656;SHT85;35474;51.032;6.998;2024-03-25T06:47:01;5.01;88.23
52656;SHT85;35474;51.032;6.998;2024-03-25T06:49:26;5.08;88.04
52656;SHT85;35474;51.032;6.998;2024-03-25T06:51:52;5.14;87.88
52656;SHT85;35474;51.032;6.998;2024-03-25T06:54:17;5.17;87.30
52656;SHT85;35474;51.032;6.998;2024-03-25T06:56:43;5.23;86.68
52656;SHT85;35474;51.032;6.998;2024-03-25T06:59:08;5.31;86.34
52656;SHT85;35474;51.032;6.998;2024-03-25T07:01:34;5.35;86.24
52656;SHT85;35474;51.032;6.998;2024-03-25T07:04:00;5.30;85.75
52656;SHT85;35474;51.032;6.998;2024-03-25T07:06:26;5.35;85.99
52656;SHT85;35474;51.032;6.998;2024-03-25T07:08:51;5.44;85.67
52656;SHT85;35474;51.032;6.998;2024-03-25T07:11:17;5.51;85.47
52656;SHT85;35474;51.032;6.998;2024-03-25T07:13:43;5.58;85.14
52656;SHT85;35474;51.032;6.998;2024-03-25T07:16:08;5.77;84.53
52656;SHT85;35474;51.032;6.998;2024-03-25T07:18:34;6.56;82.63
52656;SHT85;35474;51.032;6.998;2024-03-25T07:20:59;6.86;80.52
52656;SHT85;35474;51.032;6.998;2024-03-25T07:23:25;6.64;81.23
52656;SHT85;35474;51.032;6.998;2024-03-25T07:25:51;7.55;79.76
52656;SHT85;35474;51.032;6.998;2024-03-25T07:28:16;7.60;78.86
52656;SHT85;35474;51.032;6.998;2024-03-25T07:32:34;7.74;76.67
52656;SHT85;35474;51.032;6.998;2024-03-25T07:35:00;8.67;75.42
52656;SHT85;35474;51.032;6.998;2024-03-25T07:37:26;8.29;74.81
52656;SHT85;35474;51.032;6.998;2024-03-25T07:39:52;8.65;74.17
52656;SHT85;35474;51.032;6.998;2024-03-25T07:42:18;9.29;72.95
52656;SHT85;35474;51.032;6.998;2024-03-25T07:44:44;8.85;72.20
52656;SHT85;35474;51.032;6.998;2024-03-25T07:47:09;9.28;72.02
52656;SHT85;35474;51.032;6.998;2024-03-25T07:49:44;9.32;72.35
52656;SHT85;35474;51.032;6.998;2024-03-25T07:52:10;8.89;73.14
52656;SHT85;35474;51.032;6.998;2024-03-25T07:54:35;8.78;73.39
52656;SHT85;35474;51.032;6.998;2024-03-25T07:57:03;8.84;73.10
52656;SHT85;35474;51.032;6.998;2024-03-25T07:59:29;9.63;70.61
52656;SHT85;35474;51.032;6.998;2024-03-25T08:01:55;10.70;67.97
52656;SHT85;35474;51.032;6.998;2024-03-25T08:04:20;11.11;66.31
52656;SHT85;35474;51.032;6.998;2024-03-25T08:06:46;10.81;66.57
52656;SHT85;35474;51.032;6.998;2024-03-25T08:09:12;9.73;67.68
52656;SHT85;35474;51.032;6.998;2024-03-25T08:11:39;10.17;67.95
52656;SHT85;35474;51.032;6.998;2024-03-25T08:14:04;11.28;65.83
52656;SHT85;35474;51.032;6.998;2024-03-25T08:16:31;11.93;61.60
52656;SHT85;35474;51.032;6.998;2024-03-25T08:18:56;11.96;62.70
52656;SHT85;35474;51.032;6.998;2024-03-25T08:21:22;11.07;63.83
52656;SHT85;35474;51.032;6.998;2024-03-25T08:23:48;11.31;64.12
52656;SHT85;35474;51.032;6.998;2024-03-25T08:26:13;11.27;62.46
52656;SHT85;35474;51.032;6.998;2024-03-25T08:28:39;9.97;66.55
52656;SHT85;35474;51.032;6.998;2024-03-25T08:31:04;11.01;65.55
52656;SHT85;35474;51.032;6.998;2024-03-25T08:33:30;11.57;62.53
52656;SHT85;35474;51.032;6.998;2024-03-25T08:35:56;11.97;60.92
52656;SHT85;35474;51.032;6.998;2024-03-25T08:38:22;11.39;63.66
52656;SHT85;35474;51.032;6.998;2024-03-25T08:40:47;10.01;65.50
52656;SHT85;35474;51.032;6.998;2024-03-25T08:43:13;10.10;65.85
52656;SHT85;35474;51.032;6.998;2024-03-25T08:45:39;9.54;67.35
52656;SHT85;35474;51.032;6.998;2024-03-25T08:48:06;9.50;66.77
52656;SHT85;35474;51.032;6.998;2024-03-25T08:50:31;8.88;67.41
52656;SHT85;35474;51.032;6.998;2024-03-25T08:52:57;9.40;65.99
52656;SHT85;35474;51.032;6.998;2024-03-25T08:55:23;9.86;64.34
52656;SHT85;35474;51.032;6.998;2024-03-25T08:57:49;11.30;61.07
52656;SHT85;35474;51.032;6.998;2024-03-25T09:00:14;11.21;59.81
52656;SHT85;35474;51.032;6.998;2024-03-25T09:02:40;10.96;60.56
52656;SHT85;35474;51.032;6.998;2024-03-25T09:05:06;11.86;58.50
52656;SHT85;35474;51.032;6.998;2024-03-25T09:07:35;11.92;58.01
52656;SHT85;35474;51.032;6.998;2024-03-25T09:10:01;11.03;58.07
52656;SHT85;35474;51.032;6.998;2024-03-25T09:12:45;11.16;57.09
52656;SHT85;35474;51.032;6.998;2024-03-25T09:15:11;11.88;55.31
52656;SHT85;35474;51.032;6.998;2024-03-25T09:17:36;12.75;53.31
52656;SHT85;35474;51.032;6.998;2024-03-25T09:20:02;10.79;56.56
52656;SHT85;35474;51.032;6.998;2024-03-25T09:22:46;10.68;58.69
52656;SHT85;35474;51.032;6.998;2024-03-25T09:25:14;12.69;56.09
52656;SHT85;35474;51.032;6.998;2024-03-25T09:27:40;13.57;53.32
52656;SHT85;35474;51.032;6.998;2024-03-25T09:30:07;12.68;53.50
52656;SHT85;35474;51.032;6.998;2024-03-25T09:32:34;13.91;50.65
52656;SHT85;35474;51.032;6.998;2024-03-25T09:35:00;13.43;50.89
52656;SHT85;35474;51.032;6.998;2024-03-25T09:37:25;13.91;50.93
52656;SHT85;35474;51.032;6.998;2024-03-25T09:39:52;14.72;48.02
52656;SHT85;35474;51.032;6.998;2024-03-25T09:45:05;13.42;50.70
52656;SHT85;35474;51.032;6.998;2024-03-25T09:47:33;14.26;50.92
52656;SHT85;35474;51.032;6.998;2024-03-25T09:49:59;13.64;50.38
52656;SHT85;35474;51.032;6.998;2024-03-25T09:52:29;11.11;57.83
52656;SHT85;35474;51.032;6.998;2024-03-25T09:54:55;11.59;57.66
52656;SHT85;35474;51.032;6.998;2024-03-25T09:57:21;12.30;53.74
52656;SHT85;35474;51.032;6.998;2024-03-25T09:59:48;11.54;56.27
52656;SHT85;35474;51.032;6.998;2024-03-25T10:02:14;10.46;58.07
52656;SHT85;35474;51.032;6.998;2024-03-25T10:04:44;12.12;54.85
52656;SHT85;35474;51.032;6.998;2024-03-25T10:07:12;13.98;50.74
52656;SHT85;35474;51.032;6.998;2024-03-25T10:09:46;13.02;51.53
52656;SHT85;35474;51.032;6.998;2024-03-25T10:12:12;12.63;50.25
52656;SHT85;35474;51.032;6.998;2024-03-25T10:14:39;12.69;52.78
52656;SHT85;35474;51.032;6.998;2024-03-25T10:17:05;13.53;49.71
52656;SHT85;35474;51.032;6.998;2024-03-25T10:19:34;15.11;47.00
52656;SHT85;35474;51.032;6.998;2024-03-25T10:24:43;14.76;47.41
52656;SHT85;35474;51.032;6.998;2024-03-25T10:27:10;14.76;47.77
52656;SHT85;35474;51.032;6.998;2024-03-25T10:29:46;15.52;43.79
52656;SHT85;35474;51.032;6.998;2024-03-25T10:32:20;15.93;43.53
52656;SHT85;35474;51.032;6.998;2024-03-25T10:34:47;16.28;43.33
52656;SHT85;35474;51.032;6.998;2024-03-25T10:37:13;16.68;42.80
52656;SHT85;35474;51.032;6.998;2024-03-25T10:39:50;17.06;43.21
52656;SHT85;35474;51.032;6.998;2024-03-25T10:42:20;18.33;41.31
52656;SHT85;35474;51.032;6.998;2024-03-25T10:44:48;18.54;39.40
52656;SHT85;35474;51.032;6.998;2024-03-25T10:47:17;19.35;37.05
52656;SHT85;35474;51.032;6.998;2024-03-25T10:49:49;18.57;37.29
52656;SHT85;35474;51.032;6.998;2024-03-25T10:52:17;18.75;37.89
52656;SHT85;35474;51.032;6.998;2024-03-25T10:54:44;16.48;40.61
52656;SHT85;35474;51.032;6.998;2024-03-25T10:57:12;15.66;43.83
52656;SHT85;35474;51.032;6.998;2024-03-25T10:59:39;14.43;44.72
52656;SHT85;35474;51.032;6.998;2024-03-25T11:02:08;14.88;44.36
52656;SHT85;35474;51.032;6.998;2024-03-25T11:04:34;16.93;39.90
52656;SHT85;35474;51.032;6.998;2024-03-25T11:07:12;16.96;40.87
52656;SHT85;35474;51.032;6.998;2024-03-25T11:09:39;15.63;40.96
52656;SHT85;35474;51.032;6.998;2024-03-25T11:12:07;14.62;43.65
52656;SHT85;35474;51.032;6.998;2024-03-25T11:14:35;14.51;44.68
52656;SHT85;35474;51.032;6.998;2024-03-25T11:17:01;15.53;41.90
52656;SHT85;35474;51.032;6.998;2024-03-25T11:19:27;16.80;38.84
52656;SHT85;35474;51.032;6.998;2024-03-25T11:21:54;17.83;37.76
52656;SHT85;35474;51.032;6.998;2024-03-25T11:24:32;17.17;38.07
52656;SHT85;35474;51.032;6.998;2024-03-25T11:26:57;15.35;41.94
52656;SHT85;35474;51.032;6.998;2024-03-25T11:29:26;15.00;42.19
52656;SHT85;35474;51.032;6.998;2024-03-25T11:31:52;14.29;42.62
52656;SHT85;35474;51.032;6.998;2024-03-25T11:34:18;16.17;40.72
52656;SHT85;35474;51.032;6.998;2024-03-25T11:36:44;16.20;39.12
52656;SHT85;35474;51.032;6.998;2024-03-25T11:39:09;14.67;41.79
52656;SHT85;35474;51.032;6.998;2024-03-25T11:41:44;14.57;42.55
52656;SHT85;35474;51.032;6.998;2024-03-25T11:44:12;16.72;40.00
52656;SHT85;35474;51.032;6.998;2024-03-25T11:46:38;15.43;38.59
52656;SHT85;35474;51.032;6.998;2024-03-25T11:49:09;15.12;39.42
52656;SHT85;35474;51.032;6.998;2024-03-25T11:51:37;17.41;36.59
52656;SHT85;35474;51.032;6.998;2024-03-25T11:54:06;17.36;35.12
52656;SHT85;35474;51.032;6.998;2024-03-25T11:56:32;17.72;34.22
52656;SHT85;35474;51.032;6.998;2024-03-25T11:59:00;16.24;35.51
52656;SHT85;35474;51.032;6.998;2024-03-25T12:01:26;16.89;34.86
52656;SHT85;35474;51.032;6.998;2024-03-25T12:03:52;17.75;35.59
52656;SHT85;35474;51.032;6.998;2024-03-25T12:06:18;18.75;32.59
52656;SHT85;35474;51.032;6.998;2024-03-25T12:08:43;17.21;34.85
52656;SHT85;35474;51.032;6.998;2024-03-25T12:11:32;17.78;34.46
52656;SHT85;35474;51.032;6.998;2024-03-25T12:13:59;17.11;35.51
52656;SHT85;35474;51.032;6.998;2024-03-25T12:16:26;17.68;34.82
52656;SHT85;35474;51.032;6.998;2024-03-25T12:18:51;17.21;34.48
52656;SHT85;35474;51.032;6.998;2024-03-25T12:21:20;15.63;38.94
52656;SHT85;35474;51.032;6.998;2024-03-25T12:23:47;15.67;38.16
52656;SHT85;35474;51.032;6.998;2024-03-25T12:26:13;16.27;38.79
52656;SHT85;35474;51.032;6.998;2024-03-25T12:28:39;15.24;38.14
52656;SHT85;35474;51.032;6.998;2024-03-25T12:31:07;15.66;38.64
52656;SHT85;35474;51.032;6.998;2024-03-25T12:33:43;16.30;36.33
52656;SHT85;35474;51.032;6.998;2024-03-25T12:36:12;16.17;38.15
52656;SHT85;35474;51.032;6.998;2024-03-25T12:38:39;17.20;37.76
52656;SHT85;35474;51.032;6.998;2024-03-25T12:41:08;16.37;38.01
52656;SHT85;35474;51.032;6.998;2024-03-25T12:43:43;15.28;38.85
52656;SHT85;35474;51.032;6.998;2024-03-25T12:46:10;15.01;38.74
52656;SHT85;35474;51.032;6.998;2024-03-25T12:48:38;16.24;38.36
52656;SHT85;35474;51.032;6.998;2024-03-25T12:51:06;16.45;36.97
52656;SHT85;35474;51.032;6.998;2024-03-25T12:53:42;16.95;36.90
52656;SHT85;35474;51.032;6.998;2024-03-25T12:56:07;17.26;34.12
52656;SHT85;35474;51.032;6.998;2024-03-25T12:58:33;18.32;32.08
52656;SHT85;35474;51.032;6.998;2024-03-25T13:00:59;19.01;31.92
52656;SHT85;35474;51.032;6.998;2024-03-25T13:03:25;17.34;33.58
52656;SHT85;35474;51.032;6.998;2024-03-25T13:05:51;18.16;33.37
52656;SHT85;35474;51.032;6.998;2024-03-25T13:08:17;15.30;37.44
52656;SHT85;35474;51.032;6.998;2024-03-25T13:10:42;15.28;37.27
52656;SHT85;35474;51.032;6.998;2024-03-25T13:13:08;16.57;34.63
52656;SHT85;35474;51.032;6.998;2024-03-25T13:15:34;17.78;33.38
52656;SHT85;35474;51.032;6.998;2024-03-25T13:18:00;18.26;34.18
52656;SHT85;35474;51.032;6.998;2024-03-25T13:20:26;17.14;34.53
52656;SHT85;35474;51.032;6.998;2024-03-25T13:22:54;15.66;37.30
52656;SHT85;35474;51.032;6.998;2024-03-25T13:25:27;16.55;36.57
52656;SHT85;35474;51.032;6.998;2024-03-25T13:27:53;17.57;33.67
52656;SHT85;35474;51.032;6.998;2024-03-25T13:30:19;18.26;33.06
52656;SHT85;35474;51.032;6.998;2024-03-25T13:32:45;18.83;31.48
52656;SHT85;35474;51.032;6.998;2024-03-25T13:35:10;19.29;31.90
52656;SHT85;35474;51.032;6.998;2024-03-25T13:37:37;18.48;32.44
52656;SHT85;35474;51.032;6.998;2024-03-25T13:40:02;18.16;32.04
52656;SHT85;35474;51.032;6.998;2024-03-25T13:42:31;18.43;33.01
52656;SHT85;35474;51.032;6.998;2024-03-25T13:44:57;19.14;30.88
52656;SHT85;35474;51.032;6.998;2024-03-25T13:47:22;18.51;31.62
52656;SHT85;35474;51.032;6.998;2024-03-25T13:49:48;18.91;31.77
52656;SHT85;35474;51.032;6.998;2024-03-25T13:52:13;18.63;31.61
52656;SHT85;35474;51.032;6.998;2024-03-25T13:54:39;18.02;32.72
52656;SHT85;35474;51.032;6.998;2024-03-25T13:57:05;18.10;31.97
52656;SHT85;35474;51.032;6.998;2024-03-25T13:59:30;17.34;32.80
52656;SHT85;35474;51.032;6.998;2024-03-25T14:01:56;17.31;33.62
52656;SHT85;35474;51.032;6.998;2024-03-25T14:04:21;16.55;34.15
52656;SHT85;35474;51.032;6.998;2024-03-25T14:06:47;17.43;32.55
52656;SHT85;35474;51.032;6.998;2024-03-25T14:09:27;18.22;32.56
52656;SHT85;35474;51.032;6.998;2024-03-25T14:11:53;18.60;30.42
52656;SHT85;35474;51.032;6.998;2024-03-25T14:14:18;18.81;30.74
52656;SHT85;35474;51.032;6.998;2024-03-25T14:16:44;18.81;31.28
52656;SHT85;35474;51.032;6.998;2024-03-25T14:19:10;18.87;31.80
52656;SHT85;35474;51.032;6.998;2024-03-25T14:21:36;16.90;33.49
52656;SHT85;35474;51.032;6.998;2024-03-25T14:24:01;17.75;33.34
52656;SHT85;35474;51.032;6.998;2024-03-25T14:26:30;18.05;32.63
52656;SHT85;35474;51.032;6.998;2024-03-25T14:28:56;16.64;34.08
52656;SHT85;35474;51.032;6.998;2024-03-25T14:31:22;15.87;35.35
52656;SHT85;35474;51.032;6.998;2024-03-25T14:33:47;17.46;33.45
52656;SHT85;35474;51.032;6.998;2024-03-25T14:36:13;18.56;32.29
52656;SHT85;35474;51.032;6.998;2024-03-25T14:38:38;18.87;31.55
52656;SHT85;35474;51.032;6.998;2024-03-25T14:41:04;18.15;32.45
52656;SHT85;35474;51.032;6.998;2024-03-25T14:43:30;16.42;34.66
52656;SHT85;35474;51.032;6.998;2024-03-25T14:45:56;16.69;34.70
52656;SHT85;35474;51.032;6.998;2024-03-25T14:48:21;17.33;33.87
52656;SHT85;35474;51.032;6.998;2024-03-25T14:50:47;15.82;35.14
52656;SHT85;35474;51.032;6.998;2024-03-25T14:53:12;15.49;35.56
52656;SHT85;35474;51.032;6.998;2024-03-25T14:55:38;15.31;35.86
52656;SHT85;35474;51.032;6.998;2024-03-25T14:58:03;15.27;36.09
52656;SHT85;35474;51.032;6.998;2024-03-25T15:00:29;16.41;34.76
52656;SHT85;35474;51.032;6.998;2024-03-25T15:02:54;16.06;33.93
52656;SHT85;35474;51.032;6.998;2024-03-25T15:05:20;15.39;35.21
52656;SHT85;35474;51.032;6.998;2024-03-25T15:07:46;16.71;32.94
52656;SHT85;35474;51.032;6.998;2024-03-25T15:10:11;17.17;32.75
52656;SHT85;35474;51.032;6.998;2024-03-25T15:12:40;17.83;31.74
52656;SHT85;35474;51.032;6.998;2024-03-25T15:15:06;17.81;31.19
52656;SHT85;35474;51.032;6.998;2024-03-25T15:17:33;17.86;31.24
52656;SHT85;35474;51.032;6.998;2024-03-25T15:19:59;17.10;32.81
52656;SHT85;35474;51.032;6.998;2024-03-25T15:22:25;17.55;32.75
52656;SHT85;35474;51.032;6.998;2024-03-25T15:24:51;17.53;32.40
52656;SHT85;35474;51.032;6.998;2024-03-25T15:27:16;17.40;32.60
52656;SHT85;35474;51.032;6.998;2024-03-25T15:29:42;17.57;32.32
52656;SHT85;35474;51.032;6.998;2024-03-25T15:32:07;17.55;32.34
52656;SHT85;35474;51.032;6.998;2024-03-25T15:34:33;17.40;32.53
52656;SHT85;35474;51.032;6.998;2024-03-25T15:36:58;17.50;32.44
52656;SHT85;35474;51.032;6.998;2024-03-25T15:39:24;17.40;32.28
52656;SHT85;35474;51.032;6.998;2024-03-25T15:41:50;17.62;31.97
52656;SHT85;35474;51.032;6.998;2024-03-25T15:44:15;17.78;31.78
52656;SHT85;35474;51.032;6.998;2024-03-25T15:46:41;16.37;32.70